sensor_id;sensor_type;location;lat;lon;timestamp;P1;durP1;ratioP1;P2;durP2;ratioP2
11582;SDS011;34299;50.820;4.548;2022-10-15T00:00:16;19.03;;;13.30;;
11582;SDS011;34299;50.820;4.548;2022-10-15T00:02:43;21.53;;;13.87;;
11582;SDS011;34299;50.820;4.548;2022-10-15T00:05:10;21.73;;;13.37;;
11582;SDS011;34299;50.820;4.548;2022-10-15T00:07:37;20.67;;;13.10;;
11582;SDS011;34299;50.820;4.548;2022-10-15T00:10:06;20.97;;;13.80;;
11582;SDS011;34299;50.820;4.548;2022-10-15T00:12:34;20.73;;;12.60;;
11582;SDS011;34299;50.820;4.548;2022-10-15T00:15:01;19.77;;;12.63;;
11582;SDS011;34299;50.820;4.548;2022-10-15T00:17:29;21.03;;;13.27;;
11582;SDS011;34299;50.820;4.548;2022-10-15T00:19:56;21.90;;;13.77;;
11582;SDS011;34299;50.820;4.548;2022-10-15T00:22:23;19.50;;;13.43;;
11582;SDS011;34299;50.820;4.548;2022-10-15T00:24:50;20.90;;;12.43;;
11582;SDS011;34299;50.820;4.548;2022-10-15T00:27:19;21.13;;;12.70;;
11582;SDS011;34299;50.820;4.548;2022-10-15T00:29:46;26.87;;;14.37;;
11582;SDS011;34299;50.820;4.548;2022-10-15T00:32:13;22.33;;;13.53;;
11582;SDS011;34299;50.820;4.548;2022-10-15T00:34:40;28.63;;;14.60;;
11582;SDS011;34299;50.820;4.548;2022-10-15T00:37:08;23.13;;;14.37;;
11582;SDS011;34299;50.820;4.548;2022-10-15T00:39:35;20.30;;;12.87;;
11582;SDS011;34299;50.820;4.548;2022-10-15T00:42:02;22.40;;;14.47;;
11582;SDS011;34299;50.820;4.548;2022-10-15T00:47:17;24.17;;;14.53;;
11582;SDS011;34299;50.820;4.548;2022-10-15T00:49:45;25.37;;;14.77;;
11582;SDS011;34299;50.820;4.548;2022-10-15T00:52:15;24.77;;;14.70;;
11582;SDS011;34299;50.820;4.548;2022-10-15T00:54:44;25.57;;;15.40;;
11582;SDS011;34299;50.820;4.548;2022-10-15T00:57:13;26.13;;;15.43;;
11582;SDS011;34299;50.820;4.548;2022-10-15T00:59:42;28.43;;;14.60;;
11582;SDS011;34299;50.820;4.548;2022-10-15T01:02:10;22.83;;;14.37;;
11582;SDS011;34299;50.820;4.548;2022-10-15T01:04:39;24.67;;;14.07;;
11582;SDS011;34299;50.820;4.548;2022-10-15T01:07:10;25.73;;;15.73;;
11582;SDS011;34299;50.820;4.548;2022-10-15T01:09:38;26.57;;;15.33;;
11582;SDS011;34299;50.820;4.548;2022-10-15T01:12:06;26.40;;;15.07;;
11582;SDS011;34299;50.820;4.548;2022-10-15T01:14:38;27.17;;;15.57;;
11582;SDS011;34299;50.820;4.548;2022-10-15T01:17:10;25.53;;;15.83;;
11582;SDS011;34299;50.820;4.548;2022-10-15T01:19:48;24.73;;;16.07;;
11582;SDS011;34299;50.820;4.548;2022-10-15T01:22:23;23.20;;;14.47;;
11582;SDS011;34299;50.820;4.548;2022-10-15T01:24:59;26.10;;;15.43;;
11582;SDS011;34299;50.820;4.548;2022-10-15T01:27:30;25.70;;;15.67;;
11582;SDS011;34299;50.820;4.548;2022-10-15T01:30:03;28.23;;;16.23;;
11582;SDS011;34299;50.820;4.548;2022-10-15T01:32:35;24.37;;;15.03;;
11582;SDS011;34299;50.820;4.548;2022-10-15T01:35:04;28.43;;;16.27;;
11582;SDS011;34299;50.820;4.548;2022-10-15T01:37:35;25.83;;;15.00;;
11582;SDS011;34299;50.820;4.548;2022-10-15T01:40:04;24.97;;;15.07;;
11582;SDS011;34299;50.820;4.548;2022-10-15T01:42:36;24.83;;;15.20;;
11582;SDS011;34299;50.820;4.548;2022-10-15T01:45:06;20.40;;;13.57;;
11582;SDS011;34299;50.820;4.548;2022-10-15T01:47:36;26.27;;;14.63;;
11582;SDS011;34299;50.820;4.548;2022-10-15T01:50:06;24.57;;;14.53;;
11582;SDS011;34299;50.820;4.548;2022-10-15T01:52:35;29.00;;;15.50;;
11582;SDS011;34299;50.820;4.548;2022-10-15T01:55:04;26.63;;;15.13;;
11582;SDS011;34299;50.820;4.548;2022-10-15T01:57:32;22.17;;;13.23;;
11582;SDS011;34299;50.820;4.548;2022-10-15T02:00:00;24.77;;;14.90;;
11582;SDS011;34299;50.820;4.548;2022-10-15T02:02:28;26.00;;;14.67;;
11582;SDS011;34299;50.820;4.548;2022-10-15T02:04:56;24.60;;;13.77;;
11582;SDS011;34299;50.820;4.548;2022-10-15T02:07:26;27.23;;;14.50;;
11582;SDS011;34299;50.820;4.548;2022-10-15T02:09:57;22.83;;;13.30;;
11582;SDS011;34299;50.820;4.548;2022-10-15T02:12:30;21.93;;;13.93;;
11582;SDS011;34299;50.820;4.548;2022-10-15T02:14:59;27.00;;;14.13;;
11582;SDS011;34299;50.820;4.548;2022-10-15T02:17:28;24.47;;;13.97;;
11582;SDS011;34299;50.820;4.548;2022-10-15T02:20:00;22.07;;;13.03;;
11582;SDS011;34299;50.820;4.548;2022-10-15T02:22:33;22.17;;;13.93;;
11582;SDS011;34299;50.820;4.548;2022-10-15T02:25:02;21.80;;;13.43;;
11582;SDS011;34299;50.820;4.548;2022-10-15T02:27:30;24.27;;;14.07;;
11582;SDS011;34299;50.820;4.548;2022-10-15T02:29:59;20.67;;;13.40;;
11582;SDS011;34299;50.820;4.548;2022-10-15T02:32:27;23.37;;;14.33;;
11582;SDS011;34299;50.820;4.548;2022-10-15T02:34:56;27.17;;;14.60;;
11582;SDS011;34299;50.820;4.548;2022-10-15T02:37:25;26.80;;;15.67;;
11582;SDS011;34299;50.820;4.548;2022-10-15T02:39:53;25.43;;;15.27;;
11582;SDS011;34299;50.820;4.548;2022-10-15T02:42:21;24.50;;;13.40;;
11582;SDS011;34299;50.820;4.548;2022-10-15T02:44:48;27.67;;;14.93;;
11582;SDS011;34299;50.820;4.548;2022-10-15T02:47:15;25.93;;;14.53;;
11582;SDS011;34299;50.820;4.548;2022-10-15T02:49:43;23.43;;;13.87;;
11582;SDS011;34299;50.820;4.548;2022-10-15T02:52:11;26.20;;;14.53;;
11582;SDS011;34299;50.820;4.548;2022-10-15T02:54:39;26.33;;;12.80;;
11582;SDS011;34299;50.820;4.548;2022-10-15T02:57:06;22.47;;;13.73;;
11582;SDS011;34299;50.820;4.548;2022-10-15T02:59:34;28.30;;;14.40;;
11582;SDS011;34299;50.820;4.548;2022-10-15T03:02:01;25.23;;;13.73;;
11582;SDS011;34299;50.820;4.548;2022-10-15T03:04:28;21.80;;;12.23;;
11582;SDS011;34299;50.820;4.548;2022-10-15T03:06:55;21.30;;;10.83;;
11582;SDS011;34299;50.820;4.548;2022-10-15T03:09:22;25.93;;;13.87;;
11582;SDS011;34299;50.820;4.548;2022-10-15T03:11:51;26.03;;;13.63;;
11582;SDS011;34299;50.820;4.548;2022-10-15T03:14:18;22.13;;;13.43;;
11582;SDS011;34299;50.820;4.548;2022-10-15T03:16:45;23.63;;;13.30;;
11582;SDS011;34299;50.820;4.548;2022-10-15T03:19:12;25.53;;;13.60;;
11582;SDS011;34299;50.820;4.548;2022-10-15T03:21:39;22.60;;;12.57;;
11582;SDS011;34299;50.820;4.548;2022-10-15T03:24:07;22.13;;;12.90;;
11582;SDS011;34299;50.820;4.548;2022-10-15T03:26:34;25.17;;;12.90;;
11582;SDS011;34299;50.820;4.548;2022-10-15T03:29:02;19.93;;;12.43;;
11582;SDS011;34299;50.820;4.548;2022-10-15T03:31:29;18.00;;;10.03;;
11582;SDS011;34299;50.820;4.548;2022-10-15T03:33:57;21.03;;;12.07;;
11582;SDS011;34299;50.820;4.548;2022-10-15T03:36:24;19.23;;;10.50;;
11582;SDS011;34299;50.820;4.548;2022-10-15T03:38:51;17.43;;;10.87;;
11582;SDS011;34299;50.820;4.548;2022-10-15T03:41:18;17.73;;;10.90;;
11582;SDS011;34299;50.820;4.548;2022-10-15T03:43:46;17.30;;;10.80;;
11582;SDS011;34299;50.820;4.548;2022-10-15T03:46:14;20.70;;;12.17;;
11582;SDS011;34299;50.820;4.548;2022-10-15T03:48:42;17.27;;;11.23;;
11582;SDS011;34299;50.820;4.548;2022-10-15T03:51:09;19.33;;;11.13;;
11582;SDS011;34299;50.820;4.548;2022-10-15T03:53:36;18.30;;;10.73;;
11582;SDS011;34299;50.820;4.548;2022-10-15T03:56:03;17.93;;;9.40;;
11582;SDS011;34299;50.820;4.548;2022-10-15T03:58:31;15.73;;;9.60;;
11582;SDS011;34299;50.820;4.548;2022-10-15T04:00:58;20.60;;;11.97;;
11582;SDS011;34299;50.820;4.548;2022-10-15T04:03:26;20.07;;;10.87;;
11582;SDS011;34299;50.820;4.548;2022-10-15T04:05:54;16.97;;;10.73;;
11582;SDS011;34299;50.820;4.548;2022-10-15T04:08:21;15.50;;;9.50;;
11582;SDS011;34299;50.820;4.548;2022-10-15T04:10:49;19.30;;;10.63;;
11582;SDS011;34299;50.820;4.548;2022-10-15T04:13:16;14.67;;;8.83;;
11582;SDS011;34299;50.820;4.548;2022-10-15T04:15:44;16.93;;;9.20;;
11582;SDS011;34299;50.820;4.548;2022-10-15T04:18:11;16.43;;;9.73;;
11582;SDS011;34299;50.820;4.548;2022-10-15T04:20:39;14.23;;;8.73;;
11582;SDS011;34299;50.820;4.548;2022-10-15T04:23:07;14.30;;;8.07;;
11582;SDS011;34299;50.820;4.548;2022-10-15T04:25:34;16.03;;;9.30;;
11582;SDS011;34299;50.820;4.548;2022-10-15T04:28:02;17.63;;;9.57;;
11582;SDS011;34299;50.820;4.548;2022-10-15T04:30:29;15.37;;;7.77;;
11582;SDS011;34299;50.820;4.548;2022-10-15T04:32:56;12.70;;;8.33;;
11582;SDS011;34299;50.820;4.548;2022-10-15T04:35:23;13.97;;;8.60;;
11582;SDS011;34299;50.820;4.548;2022-10-15T04:37:52;13.70;;;7.43;;
11582;SDS011;34299;50.820;4.548;2022-10-15T04:40:19;17.17;;;8.73;;
11582;SDS011;34299;50.820;4.548;2022-10-15T04:42:46;13.53;;;8.47;;
11582;SDS011;34299;50.820;4.548;2022-10-15T04:45:13;15.70;;;8.57;;
11582;SDS011;34299;50.820;4.548;2022-10-15T04:47:40;14.73;;;8.23;;
11582;SDS011;34299;50.820;4.548;2022-10-15T04:50:08;14.57;;;7.70;;
11582;SDS011;34299;50.820;4.548;2022-10-15T04:52:35;16.67;;;8.60;;
11582;SDS011;34299;50.820;4.548;2022-10-15T04:55:04;17.57;;;9.27;;
11582;SDS011;34299;50.820;4.548;2022-10-15T04:57:32;16.10;;;8.60;;
11582;SDS011;34299;50.820;4.548;2022-10-15T04:59:59;14.43;;;8.90;;
11582;SDS011;34299;50.820;4.548;2022-10-15T05:02:26;17.10;;;9.43;;
11582;SDS011;34299;50.820;4.548;2022-10-15T05:04:54;13.37;;;7.60;;
11582;SDS011;34299;50.820;4.548;2022-10-15T05:07:21;14.03;;;8.10;;
11582;SDS011;34299;50.820;4.548;2022-10-15T05:09:48;14.93;;;8.27;;
11582;SDS011;34299;50.820;4.548;2022-10-15T05:12:17;12.43;;;7.10;;
11582;SDS011;34299;50.820;4.548;2022-10-15T05:14:44;14.10;;;8.00;;
11582;SDS011;34299;50.820;4.548;2022-10-15T05:17:11;11.57;;;6.20;;
11582;SDS011;34299;50.820;4.548;2022-10-15T05:19:38;14.10;;;6.67;;
11582;SDS011;34299;50.820;4.548;2022-10-15T05:22:05;10.47;;;5.57;;
11582;SDS011;34299;50.820;4.548;2022-10-15T05:24:33;10.87;;;5.87;;
11582;SDS011;34299;50.820;4.548;2022-10-15T05:27:00;10.60;;;5.47;;
11582;SDS011;34299;50.820;4.548;2022-10-15T05:29:28;11.93;;;5.80;;
11582;SDS011;34299;50.820;4.548;2022-10-15T05:31:55;9.07;;;5.57;;
11582;SDS011;34299;50.820;4.548;2022-10-15T05:34:23;11.50;;;6.20;;
11582;SDS011;34299;50.820;4.548;2022-10-15T05:36:51;9.33;;;5.40;;
11582;SDS011;34299;50.820;4.548;2022-10-15T05:39:18;9.67;;;5.47;;
11582;SDS011;34299;50.820;4.548;2022-10-15T05:41:45;9.17;;;5.00;;
11582;SDS011;34299;50.820;4.548;2022-10-15T05:44:13;11.23;;;5.97;;
11582;SDS011;34299;50.820;4.548;2022-10-15T05:46:42;10.27;;;5.73;;
11582;SDS011;34299;50.820;4.548;2022-10-15T05:49:09;9.97;;;5.77;;
11582;SDS011;34299;50.820;4.548;2022-10-15T05:51:36;8.93;;;5.27;;
11582;SDS011;34299;50.820;4.548;2022-10-15T05:54:03;9.80;;;5.73;;
11582;SDS011;34299;50.820;4.548;2022-10-15T05:56:30;11.67;;;6.57;;
11582;SDS011;34299;50.820;4.548;2022-10-15T05:58:57;9.90;;;5.50;;
11582;SDS011;34299;50.820;4.548;2022-10-15T06:01:25;7.10;;;4.77;;
11582;SDS011;34299;50.820;4.548;2022-10-15T06:03:53;10.00;;;5.60;;
11582;SDS011;34299;50.820;4.548;2022-10-15T06:06:21;8.00;;;5.30;;
11582;SDS011;34299;50.820;4.548;2022-10-15T06:08:50;11.50;;;5.63;;
11582;SDS011;34299;50.820;4.548;2022-10-15T06:11:18;10.93;;;5.83;;
11582;SDS011;34299;50.820;4.548;2022-10-15T06:13:45;10.50;;;5.03;;
11582;SDS011;34299;50.820;4.548;2022-10-15T06:16:13;8.93;;;5.97;;
11582;SDS011;34299;50.820;4.548;2022-10-15T06:18:41;10.47;;;4.53;;
11582;SDS011;34299;50.820;4.548;2022-10-15T06:21:10;9.33;;;5.43;;
11582;SDS011;34299;50.820;4.548;2022-10-15T06:23:37;11.07;;;5.60;;
11582;SDS011;34299;50.820;4.548;2022-10-15T06:26:05;8.63;;;4.63;;
11582;SDS011;34299;50.820;4.548;2022-10-15T06:28:32;8.77;;;5.07;;
11582;SDS011;34299;50.820;4.548;2022-10-15T06:31:00;8.10;;;4.83;;
11582;SDS011;34299;50.820;4.548;2022-10-15T06:33:27;10.00;;;4.57;;
11582;SDS011;34299;50.820;4.548;2022-10-15T06:35:58;8.30;;;4.80;;
11582;SDS011;34299;50.820;4.548;2022-10-15T06:38:27;9.53;;;5.17;;
11582;SDS011;34299;50.820;4.548;2022-10-15T06:40:54;6.23;;;3.93;;
11582;SDS011;34299;50.820;4.548;2022-10-15T06:43:22;8.20;;;4.40;;
11582;SDS011;34299;50.820;4.548;2022-10-15T06:45:49;7.07;;;4.33;;
11582;SDS011;34299;50.820;4.548;2022-10-15T06:48:16;6.60;;;4.17;;
11582;SDS011;34299;50.820;4.548;2022-10-15T06:50:44;6.50;;;3.87;;
11582;SDS011;34299;50.820;4.548;2022-10-15T06:53:11;7.10;;;3.83;;
11582;SDS011;34299;50.820;4.548;2022-10-15T06:55:40;7.00;;;4.17;;
11582;SDS011;34299;50.820;4.548;2022-10-15T06:58:07;7.13;;;3.37;;
11582;SDS011;34299;50.820;4.548;2022-10-15T07:00:34;6.20;;;4.10;;
11582;SDS011;34299;50.820;4.548;2022-10-15T07:03:02;7.83;;;4.33;;
11582;SDS011;34299;50.820;4.548;2022-10-15T07:05:30;7.47;;;3.70;;
11582;SDS011;34299;50.820;4.548;2022-10-15T07:07:57;5.17;;;3.40;;
11582;SDS011;34299;50.820;4.548;2022-10-15T07:10:25;5.93;;;3.40;;
11582;SDS011;34299;50.820;4.548;2022-10-15T07:12:54;7.93;;;3.70;;
11582;SDS011;34299;50.820;4.548;2022-10-15T07:15:21;5.87;;;3.60;;
11582;SDS011;34299;50.820;4.548;2022-10-15T07:17:49;4.80;;;2.63;;
11582;SDS011;34299;50.820;4.548;2022-10-15T07:20:17;6.70;;;3.93;;
11582;SDS011;34299;50.820;4.548;2022-10-15T07:22:44;5.33;;;3.37;;
11582;SDS011;34299;50.820;4.548;2022-10-15T07:25:12;4.33;;;2.70;;
11582;SDS011;34299;50.820;4.548;2022-10-15T07:27:40;5.00;;;2.90;;
11582;SDS011;34299;50.820;4.548;2022-10-15T07:30:09;5.17;;;2.70;;
11582;SDS011;34299;50.820;4.548;2022-10-15T07:32:36;4.93;;;2.57;;
11582;SDS011;34299;50.820;4.548;2022-10-15T07:35:04;4.83;;;2.73;;
11582;SDS011;34299;50.820;4.548;2022-10-15T07:37:31;4.70;;;2.90;;
11582;SDS011;34299;50.820;4.548;2022-10-15T07:39:58;4.43;;;2.77;;
11582;SDS011;34299;50.820;4.548;2022-10-15T07:42:25;3.53;;;2.70;;
11582;SDS011;34299;50.820;4.548;2022-10-15T07:44:53;4.07;;;2.73;;
11582;SDS011;34299;50.820;4.548;2022-10-15T07:47:21;4.47;;;2.53;;
11582;SDS011;34299;50.820;4.548;2022-10-15T07:49:48;4.23;;;2.83;;
11582;SDS011;34299;50.820;4.548;2022-10-15T07:52:15;3.17;;;2.47;;
11582;SDS011;34299;50.820;4.548;2022-10-15T07:54:43;3.57;;;2.33;;
11582;SDS011;34299;50.820;4.548;2022-10-15T07:57:10;3.40;;;2.83;;
11582;SDS011;34299;50.820;4.548;2022-10-15T07:59:39;4.17;;;2.23;;
11582;SDS011;34299;50.820;4.548;2022-10-15T08:02:09;4.50;;;2.47;;
11582;SDS011;34299;50.820;4.548;2022-10-15T08:04:39;3.07;;;1.90;;
11582;SDS011;34299;50.820;4.548;2022-10-15T08:07:06;3.07;;;2.00;;
11582;SDS011;34299;50.820;4.548;2022-10-15T08:09:33;2.43;;;1.80;;
11582;SDS011;34299;50.820;4.548;2022-10-15T08:12:00;1.90;;;1.70;;
11582;SDS011;34299;50.820;4.548;2022-10-15T08:14:27;2.17;;;1.70;;
11582;SDS011;34299;50.820;4.548;2022-10-15T08:16:55;2.13;;;1.70;;
11582;SDS011;34299;50.820;4.548;2022-10-15T08:19:22;3.73;;;1.87;;
11582;SDS011;34299;50.820;4.548;2022-10-15T08:21:50;2.23;;;1.53;;
11582;SDS011;34299;50.820;4.548;2022-10-15T08:24:18;1.80;;;1.70;;
11582;SDS011;34299;50.820;4.548;2022-10-15T08:26:45;1.90;;;1.50;;
11582;SDS011;34299;50.820;4.548;2022-10-15T08:29:13;2.10;;;1.90;;
11582;SDS011;34299;50.820;4.548;2022-10-15T08:31:41;1.80;;;1.33;;
11582;SDS011;34299;50.820;4.548;2022-10-15T08:34:08;2.87;;;1.67;;
11582;SDS011;34299;50.820;4.548;2022-10-15T08:36:35;1.50;;;1.40;;
11582;SDS011;34299;50.820;4.548;2022-10-15T08:39:04;2.37;;;1.33;;
11582;SDS011;34299;50.820;4.548;2022-10-15T08:41:34;1.30;;;1.20;;
11582;SDS011;34299;50.820;4.548;2022-10-15T08:44:03;1.00;;;0.83;;
11582;SDS011;34299;50.820;4.548;2022-10-15T08:46:32;1.40;;;1.13;;
11582;SDS011;34299;50.820;4.548;2022-10-15T08:49:00;0.87;;;0.87;;
11582;SDS011;34299;50.820;4.548;2022-10-15T08:51:29;1.37;;;1.10;;
11582;SDS011;34299;50.820;4.548;2022-10-15T08:54:00;1.30;;;1.20;;
11582;SDS011;34299;50.820;4.548;2022-10-15T08:56:32;1.27;;;0.90;;
11582;SDS011;34299;50.820;4.548;2022-10-15T08:59:02;1.00;;;0.90;;
11582;SDS011;34299;50.820;4.548;2022-10-15T09:01:31;0.80;;;0.80;;
11582;SDS011;34299;50.820;4.548;2022-10-15T09:04:04;1.43;;;1.03;;
11582;SDS011;34299;50.820;4.548;2022-10-15T09:06:34;1.83;;;1.00;;
11582;SDS011;34299;50.820;4.548;2022-10-15T09:09:05;0.83;;;0.83;;
11582;SDS011;34299;50.820;4.548;2022-10-15T09:11:38;0.93;;;0.93;;
11582;SDS011;34299;50.820;4.548;2022-10-15T09:14:08;0.60;;;0.60;;
11582;SDS011;34299;50.820;4.548;2022-10-15T09:16:37;0.67;;;0.67;;
11582;SDS011;34299;50.820;4.548;2022-10-15T09:19:09;1.23;;;0.93;;
11582;SDS011;34299;50.820;4.548;2022-10-15T09:21:39;5.13;;;1.10;;
11582;SDS011;34299;50.820;4.548;2022-10-15T09:24:08;1.63;;;0.90;;
11582;SDS011;34299;50.820;4.548;2022-10-15T09:26:40;2.23;;;0.97;;
11582;SDS011;34299;50.820;4.548;2022-10-15T09:29:13;1.47;;;1.10;;
11582;SDS011;34299;50.820;4.548;2022-10-15T09:31:44;1.10;;;1.00;;
11582;SDS011;34299;50.820;4.548;2022-10-15T09:34:16;1.50;;;1.17;;
11582;SDS011;34299;50.820;4.548;2022-10-15T09:36:46;2.33;;;1.13;;
11582;SDS011;34299;50.820;4.548;2022-10-15T09:39:24;1.50;;;1.33;;
11582;SDS011;34299;50.820;4.548;2022-10-15T09:41:59;1.10;;;1.00;;
11582;SDS011;34299;50.820;4.548;2022-10-15T09:44:31;1.60;;;1.43;;
11582;SDS011;34299;50.820;4.548;2022-10-15T09:46:59;1.30;;;1.20;;
11582;SDS011;34299;50.820;4.548;2022-10-15T09:49:27;2.00;;;1.13;;
11582;SDS011;34299;50.820;4.548;2022-10-15T09:51:56;1.77;;;1.33;;
11582;SDS011;34299;50.820;4.548;2022-10-15T09:54:30;2.00;;;1.50;;
11582;SDS011;34299;50.820;4.548;2022-10-15T09:57:02;1.47;;;1.30;;
11582;SDS011;34299;50.820;4.548;2022-10-15T09:59:29;1.40;;;1.30;;
11582;SDS011;34299;50.820;4.548;2022-10-15T10:01:58;1.40;;;1.30;;
11582;SDS011;34299;50.820;4.548;2022-10-15T10:04:26;1.77;;;1.27;;
11582;SDS011;34299;50.820;4.548;2022-10-15T10:06:54;3.93;;;1.30;;
11582;SDS011;34299;50.820;4.548;2022-10-15T10:09:22;0.90;;;0.90;;
11582;SDS011;34299;50.820;4.548;2022-10-15T10:11:51;0.87;;;0.87;;
11582;SDS011;34299;50.820;4.548;2022-10-15T10:14:24;0.90;;;0.90;;
11582;SDS011;34299;50.820;4.548;2022-10-15T10:17:05;1.17;;;1.07;;
11582;SDS011;34299;50.820;4.548;2022-10-15T10:19:33;1.40;;;1.30;;
11582;SDS011;34299;50.820;4.548;2022-10-15T10:22:05;1.17;;;0.80;;
11582;SDS011;34299;50.820;4.548;2022-10-15T10:24:37;0.90;;;0.90;;
11582;SDS011;34299;50.820;4.548;2022-10-15T10:27:11;2.70;;;0.90;;
11582;SDS011;34299;50.820;4.548;2022-10-15T10:29:45;1.60;;;0.90;;
11582;SDS011;34299;50.820;4.548;2022-10-15T10:32:16;0.67;;;0.67;;
11582;SDS011;34299;50.820;4.548;2022-10-15T10:34:44;1.03;;;0.70;;
11582;SDS011;34299;50.820;4.548;2022-10-15T10:37:12;0.80;;;0.80;;
11582;SDS011;34299;50.820;4.548;2022-10-15T10:39:39;1.93;;;0.90;;
11582;SDS011;34299;50.820;4.548;2022-10-15T10:42:22;0.83;;;0.83;;
11582;SDS011;34299;50.820;4.548;2022-10-15T10:44:51;1.47;;;0.93;;
11582;SDS011;34299;50.820;4.548;2022-10-15T10:47:19;1.60;;;0.80;;
11582;SDS011;34299;50.820;4.548;2022-10-15T10:49:47;0.87;;;0.83;;
11582;SDS011;34299;50.820;4.548;2022-10-15T10:52:20;0.90;;;0.90;;
11582;SDS011;34299;50.820;4.548;2022-10-15T10:54:47;1.03;;;0.90;;
11582;SDS011;34299;50.820;4.548;2022-10-15T10:57:17;1.17;;;1.07;;
11582;SDS011;34299;50.820;4.548;2022-10-15T10:59:49;1.00;;;0.90;;
11582;SDS011;34299;50.820;4.548;2022-10-15T11:02:18;1.00;;;0.90;;
11582;SDS011;34299;50.820;4.548;2022-10-15T11:04:45;1.00;;;0.90;;
11582;SDS011;34299;50.820;4.548;2022-10-15T11:07:14;1.07;;;0.90;;
11582;SDS011;34299;50.820;4.548;2022-10-15T11:09:47;2.00;;;1.20;;
11582;SDS011;34299;50.820;4.548;2022-10-15T11:12:27;0.90;;;0.90;;
11582;SDS011;34299;50.820;4.548;2022-10-15T11:14:56;1.07;;;0.97;;
11582;SDS011;34299;50.820;4.548;2022-10-15T11:17:28;1.37;;;1.00;;
11582;SDS011;34299;50.820;4.548;2022-10-15T11:20:02;0.80;;;0.80;;
11582;SDS011;34299;50.820;4.548;2022-10-15T11:22:39;1.00;;;1.00;;
11582;SDS011;34299;50.820;4.548;2022-10-15T11:25:13;0.80;;;0.80;;
11582;SDS011;34299;50.820;4.548;2022-10-15T11:27:58;0.90;;;0.90;;
11582;SDS011;34299;50.820;4.548;2022-10-15T11:30:33;1.20;;;0.90;;
11582;SDS011;34299;50.820;4.548;2022-10-15T11:33:06;1.03;;;1.00;;
11582;SDS011;34299;50.820;4.548;2022-10-15T11:35:39;1.00;;;0.87;;
11582;SDS011;34299;50.820;4.548;2022-10-15T11:38:13;1.10;;;0.77;;
11582;SDS011;34299;50.820;4.548;2022-10-15T11:40:46;0.60;;;0.60;;
11582;SDS011;34299;50.820;4.548;2022-10-15T11:43:19;1.00;;;0.90;;
11582;SDS011;34299;50.820;4.548;2022-10-15T11:45:53;1.60;;;1.40;;
11582;SDS011;34299;50.820;4.548;2022-10-15T11:48:28;1.27;;;1.17;;
11582;SDS011;34299;50.820;4.548;2022-10-15T11:51:00;1.20;;;1.10;;
11582;SDS011;34299;50.820;4.548;2022-10-15T11:53:33;1.13;;;1.03;;
11582;SDS011;34299;50.820;4.548;2022-10-15T11:56:04;2.57;;;0.77;;
11582;SDS011;34299;50.820;4.548;2022-10-15T11:58:37;0.60;;;0.60;;
11582;SDS011;34299;50.820;4.548;2022-10-15T12:01:06;1.07;;;0.87;;
11582;SDS011;34299;50.820;4.548;2022-10-15T12:03:40;0.77;;;0.60;;
11582;SDS011;34299;50.820;4.548;2022-10-15T12:06:12;0.80;;;0.80;;
11582;SDS011;34299;50.820;4.548;2022-10-15T12:08:40;2.50;;;0.80;;
11582;SDS011;34299;50.820;4.548;2022-10-15T12:11:12;0.70;;;0.70;;
11582;SDS011;34299;50.820;4.548;2022-10-15T12:13:44;0.70;;;0.70;;
11582;SDS011;34299;50.820;4.548;2022-10-15T12:16:18;0.73;;;0.63;;
11582;SDS011;34299;50.820;4.548;2022-10-15T12:18:51;0.80;;;0.80;;
11582;SDS011;34299;50.820;4.548;2022-10-15T12:21:30;1.13;;;0.80;;
11582;SDS011;34299;50.820;4.548;2022-10-15T12:23:58;0.77;;;0.77;;
11582;SDS011;34299;50.820;4.548;2022-10-15T12:26:27;1.00;;;0.90;;
11582;SDS011;34299;50.820;4.548;2022-10-15T12:28:56;0.90;;;0.90;;
11582;SDS011;34299;50.820;4.548;2022-10-15T12:31:24;1.03;;;1.00;;
11582;SDS011;34299;50.820;4.548;2022-10-15T12:33:53;0.87;;;0.87;;
11582;SDS011;34299;50.820;4.548;2022-10-15T12:36:22;1.37;;;1.20;;
11582;SDS011;34299;50.820;4.548;2022-10-15T12:38:54;1.30;;;1.20;;
11582;SDS011;34299;50.820;4.548;2022-10-15T12:41:32;1.87;;;1.00;;
11582;SDS011;34299;50.820;4.548;2022-10-15T12:44:04;1.00;;;0.90;;
11582;SDS011;34299;50.820;4.548;2022-10-15T12:46:34;1.03;;;0.70;;
11582;SDS011;34299;50.820;4.548;2022-10-15T12:49:10;1.27;;;1.00;;
11582;SDS011;34299;50.820;4.548;2022-10-15T12:51:58;1.57;;;1.20;;
11582;SDS011;34299;50.820;4.548;2022-10-15T12:54:33;0.87;;;0.70;;
11582;SDS011;34299;50.820;4.548;2022-10-15T12:57:00;3.20;;;0.70;;
11582;SDS011;34299;50.820;4.548;2022-10-15T13:02:32;0.30;;;0.30;;
11582;SDS011;34299;50.820;4.548;2022-10-15T13:05:02;2.40;;;0.83;;
11582;SDS011;34299;50.820;4.548;2022-10-15T13:07:30;0.40;;;0.40;;
11582;SDS011;34299;50.820;4.548;2022-10-15T13:09:58;0.57;;;0.57;;
11582;SDS011;34299;50.820;4.548;2022-10-15T13:12:25;0.53;;;0.50;;
11582;SDS011;34299;50.820;4.548;2022-10-15T13:14:55;0.70;;;0.50;;
11582;SDS011;34299;50.820;4.548;2022-10-15T13:17:23;1.33;;;0.50;;
11582;SDS011;34299;50.820;4.548;2022-10-15T13:19:55;2.60;;;0.73;;
11582;SDS011;34299;50.820;4.548;2022-10-15T13:22:24;0.40;;;0.40;;
11582;SDS011;34299;50.820;4.548;2022-10-15T13:24:52;0.80;;;0.60;;
11582;SDS011;34299;50.820;4.548;2022-10-15T13:27:21;0.43;;;0.43;;
11582;SDS011;34299;50.820;4.548;2022-10-15T13:29:53;1.20;;;0.77;;
11582;SDS011;34299;50.820;4.548;2022-10-15T13:32:20;1.03;;;0.70;;
11582;SDS011;34299;50.820;4.548;2022-10-15T13:34:47;0.73;;;0.73;;
11582;SDS011;34299;50.820;4.548;2022-10-15T13:37:16;0.50;;;0.50;;
11582;SDS011;34299;50.820;4.548;2022-10-15T13:39:44;1.23;;;0.70;;
11582;SDS011;34299;50.820;4.548;2022-10-15T13:42:16;1.17;;;0.60;;
11582;SDS011;34299;50.820;4.548;2022-10-15T13:44:54;2.00;;;0.60;;
11582;SDS011;34299;50.820;4.548;2022-10-15T13:47:23;0.80;;;0.80;;
11582;SDS011;34299;50.820;4.548;2022-10-15T13:49:51;2.13;;;0.43;;
11582;SDS011;34299;50.820;4.548;2022-10-15T13:52:37;0.97;;;0.63;;
11582;SDS011;34299;50.820;4.548;2022-10-15T13:55:10;2.43;;;0.90;;
11582;SDS011;34299;50.820;4.548;2022-10-15T13:57:42;2.83;;;0.60;;
11582;SDS011;34299;50.820;4.548;2022-10-15T14:00:17;1.90;;;0.80;;
11582;SDS011;34299;50.820;4.548;2022-10-15T14:02:45;1.33;;;0.70;;
11582;SDS011;34299;50.820;4.548;2022-10-15T14:05:15;1.00;;;0.70;;
11582;SDS011;34299;50.820;4.548;2022-10-15T14:07:42;2.73;;;0.90;;
11582;SDS011;34299;50.820;4.548;2022-10-15T14:10:11;1.07;;;0.97;;
11582;SDS011;34299;50.820;4.548;2022-10-15T14:12:38;2.53;;;0.70;;
11582;SDS011;34299;50.820;4.548;2022-10-15T14:17:51;3.40;;;0.80;;
11582;SDS011;34299;50.820;4.548;2022-10-15T14:20:19;1.00;;;0.70;;
11582;SDS011;34299;50.820;4.548;2022-10-15T14:22:47;2.13;;;0.60;;
11582;SDS011;34299;50.820;4.548;2022-10-15T14:25:18;0.50;;;0.50;;
11582;SDS011;34299;50.820;4.548;2022-10-15T14:27:48;0.87;;;0.73;;
11582;SDS011;34299;50.820;4.548;2022-10-15T14:30:19;1.00;;;0.90;;
11582;SDS011;34299;50.820;4.548;2022-10-15T14:32:48;1.33;;;0.70;;
11582;SDS011;34299;50.820;4.548;2022-10-15T14:35:22;1.53;;;0.80;;
11582;SDS011;34299;50.820;4.548;2022-10-15T14:37:57;2.53;;;0.83;;
11582;SDS011;34299;50.820;4.548;2022-10-15T14:40:26;1.33;;;0.67;;
11582;SDS011;34299;50.820;4.548;2022-10-15T14:43:00;0.63;;;0.50;;
11582;SDS011;34299;50.820;4.548;2022-10-15T14:45:28;0.90;;;0.60;;
11582;SDS011;34299;50.820;4.548;2022-10-15T14:47:56;1.10;;;0.70;;
11582;SDS011;34299;50.820;4.548;2022-10-15T14:50:25;0.60;;;0.57;;
11582;SDS011;34299;50.820;4.548;2022-10-15T14:52:52;2.13;;;0.90;;
11582;SDS011;34299;50.820;4.548;2022-10-15T14:55:27;0.50;;;0.50;;
11582;SDS011;34299;50.820;4.548;2022-10-15T14:57:57;1.57;;;0.80;;